Time;durP1;ratioP1;P1;durP2;ratioP2;P2;SDS_P1;SDS_P2;PMS_P1;PMS_P2;Temp;Humidity;BMP_temperature;BMP_pressure;BME280_temperature;BME280_humidity;BME280_pressure;Samples;Min_cycle;Max_cycle;Signal;HPM_P1;HPM_P2
2022/06/08 00:01:42;;;;;;;14.50;9.60;;;16.70;99.90;;;;;;5055381;28;20488;-77
2022/06/08 00:04:10;;;;;;;13.85;10.65;;;16.70;99.90;;;;;;5057373;28;20452;-78
2022/06/08 00:06:36;;;;;;;10.57;9.48;;;16.80;99.90;;;;;;5055352;28;20393;-77
2022/06/08 00:09:02;;;;;;;14.20;10.75;;;16.70;99.90;;;;;;5052701;28;20986;-77
2022/06/08 00:11:27;;;;;;;11.60;10.00;;;16.80;99.90;;;;;;5054683;28;20858;-77
2022/06/08 00:13:53;;;;;;;16.03;11.10;;;16.80;98.90;;;;;;5037690;28;20397;-77
2022/06/08 00:16:19;;;;;;;15.52;10.30;;;16.60;98.50;;;;;;5061233;28;20846;-77
2022/06/08 00:18:45;;;;;;;15.43;11.40;;;16.50;98.90;;;;;;5050025;28;20397;-76
2022/06/08 00:21:13;;;;;;;14.20;10.53;;;16.30;99.90;;;;;;5039759;28;20415;-76
2022/06/08 00:23:39;;;;;;;15.57;10.68;;;16.10;99.90;;;;;;5040988;28;20383;-77
2022/06/08 00:26:04;;;;;;;18.67;11.40;;;16.00;99.90;;;;;;5037521;28;20391;-76
2022/06/08 00:28:31;;;;;;;15.33;10.13;;;16.00;99.90;;;;;;5052731;28;20407;-77
2022/06/08 00:30:57;;;;;;;17.15;10.77;;;15.90;99.90;;;;;;5051261;28;20390;-78
2022/06/08 00:33:23;;;;;;;16.77;10.50;;;15.80;99.90;;;;;;5042287;28;20398;-77
2022/06/08 00:35:48;;;;;;;14.93;10.90;;;15.70;99.90;;;;;;5047416;28;20442;-76
2022/06/08 00:38:14;;;;;;;16.15;11.43;;;15.70;99.90;;;;;;5045840;28;20467;-78
2022/06/08 00:41:12;;;;;;;17.65;11.90;;;15.60;99.90;;;;;;5057300;28;20768;-78
2022/06/08 00:43:37;;;;;;;16.27;11.80;;;15.70;99.90;;;;;;5056761;28;20433;-79
2022/06/08 00:46:05;;;;;;;17.20;11.53;;;15.60;99.90;;;;;;5066512;28;20459;-77
2022/06/08 00:48:37;;;;;;;16.15;11.35;;;15.60;99.90;;;;;;5044901;28;20405;-78
2022/06/08 00:51:03;;;;;;;18.92;12.20;;;15.50;99.90;;;;;;5062849;28;20428;-76
2022/06/08 00:53:45;;;;;;;15.90;11.60;;;15.50;99.90;;;;;;5057135;28;20466;-77
2022/06/08 00:56:17;;;;;;;19.70;12.00;;;15.50;99.90;;;;;;5060196;28;20385;-76
2022/06/08 00:58:43;;;;;;;18.63;12.10;;;15.50;99.90;;;;;;5055078;28;20796;-77
2022/06/08 01:01:10;;;;;;;20.70;11.80;;;15.50;99.90;;;;;;5055793;28;20544;-77
2022/06/08 01:03:36;;;;;;;16.77;11.45;;;15.40;99.90;;;;;;5053514;28;20432;-77
2022/06/08 01:06:19;;;;;;;17.70;11.68;;;15.40;99.90;;;;;;5047597;28;20464;-77
2022/06/08 01:08:51;;;;;;;19.55;12.85;;;15.30;99.90;;;;;;5052623;28;20440;-76
2022/06/08 01:11:24;;;;;;;19.55;12.38;;;15.30;99.90;;;;;;5053802;28;20811;-77
2022/06/08 01:13:52;;;;;;;20.95;11.93;;;15.20;99.90;;;;;;5044702;28;20439;-77
2022/06/08 01:16:18;;;;;;;20.35;12.18;;;15.20;99.90;;;;;;5043620;28;20391;-78
2022/06/08 01:18:43;;;;;;;15.85;11.10;;;15.20;99.90;;;;;;5034686;28;20780;-77
2022/06/08 01:21:21;;;;;;;16.90;11.37;;;15.10;99.90;;;;;;5033973;28;20420;-76
2022/06/08 01:24:02;;;;;;;17.27;12.07;;;15.20;99.90;;;;;;5041795;28;20484;-77
2022/06/08 01:27:02;;;;;;;19.83;12.10;;;15.20;99.90;;;;;;5038785;28;20399;-76
2022/06/08 01:29:35;;;;;;;15.90;11.88;;;15.10;99.90;;;;;;5032588;28;20406;-77
2022/06/08 01:32:06;;;;;;;18.00;11.60;;;15.10;99.90;;;;;;5033556;28;20442;-77
2022/06/08 01:34:56;;;;;;;18.15;11.70;;;15.10;99.90;;;;;;5042035;28;20428;-77
2022/06/08 01:37:54;;;;;;;15.98;11.82;;;15.20;99.90;;;;;;5033634;28;20755;-76
2022/06/08 01:40:31;;;;;;;19.00;11.95;;;15.10;99.90;;;;;;5031629;28;20409;-76
2022/06/08 01:43:05;;;;;;;19.70;12.23;;;15.10;99.90;;;;;;5047975;28;20401;-77
2022/06/08 01:45:33;;;;;;;15.68;11.57;;;15.10;99.90;;;;;;5041927;28;20871;-77
2022/06/08 01:48:37;;;;;;;17.63;11.63;;;15.10;99.90;;;;;;5025815;28;20419;-78
2022/06/08 01:51:25;;;;;;;19.83;11.65;;;15.00;99.90;;;;;;5054064;28;20381;-77
2022/06/08 01:54:02;;;;;;;15.50;11.18;;;15.00;99.90;;;;;;5057173;28;20494;-77
2022/06/08 01:56:38;;;;;;;19.75;12.35;;;15.00;99.90;;;;;;5063568;28;20425;-77
2022/06/08 01:59:24;;;;;;;14.93;11.43;;;14.90;99.90;;;;;;5049214;28;20409;-78
2022/06/08 02:02:07;;;;;;;16.70;11.43;;;14.90;99.90;;;;;;5039695;28;20378;-76
2022/06/08 02:04:39;;;;;;;18.55;12.90;;;14.80;99.90;;;;;;5048737;28;20425;-77
2022/06/08 02:07:26;;;;;;;17.42;11.68;;;14.80;99.90;;;;;;5055721;28;20415;-77
2022/06/08 02:10:08;;;;;;;17.67;11.73;;;14.70;99.90;;;;;;5059319;28;20509;-77
2022/06/08 02:12:38;;;;;;;17.30;11.68;;;14.70;99.90;;;;;;5058983;28;20373;-76
2022/06/08 02:15:09;;;;;;;20.25;12.93;;;14.70;99.90;;;;;;5056818;28;20397;-76
2022/06/08 02:17:47;;;;;;;20.85;13.05;;;14.70;99.90;;;;;;5046580;28;20477;-77
2022/06/08 02:20:19;;;;;;;21.87;12.37;;;14.80;99.90;;;;;;5037347;28;20788;-77
2022/06/08 02:22:58;;;;;;;18.05;12.18;;;14.60;99.90;;;;;;5042359;28;20726;-76
2022/06/08 02:25:30;;;;;;;18.27;12.20;;;14.60;99.90;;;;;;5039159;28;20504;-77
2022/06/08 02:28:12;;;;;;;21.00;12.52;;;14.60;99.90;;;;;;5024525;28;20390;-77
2022/06/08 02:30:47;;;;;;;18.98;11.82;;;14.50;99.90;;;;;;5043314;28;20407;-77
2022/06/08 02:36:15;;;;;;;19.98;12.90;;;14.50;99.90;;;;;;5057391;28;20423;-78
2022/06/08 02:38:48;;;;;;;21.88;13.50;;;14.50;99.90;;;;;;5049510;28;20399;-78
2022/06/08 02:41:15;;;;;;;19.83;12.07;;;14.50;99.90;;;;;;5041126;28;20387;-77
2022/06/08 02:43:48;;;;;;;21.00;13.23;;;14.50;99.90;;;;;;5049392;28;20414;-76
2022/06/08 02:46:50;;;;;;;19.38;13.02;;;14.50;99.90;;;;;;5027812;28;20424;-78
2022/06/08 02:49:16;;;;;;;19.48;13.50;;;14.50;99.90;;;;;;5060809;28;20894;-77
2022/06/08 02:51:46;;;;;;;17.60;13.20;;;14.50;99.90;;;;;;5041884;28;20387;-77
2022/06/08 02:54:16;;;;;;;20.87;13.17;;;14.50;99.90;;;;;;5054533;28;20828;-80
2022/06/08 02:57:11;;;;;;;22.90;13.18;;;14.50;99.90;;;;;;5035239;28;20985;-78
2022/06/08 02:59:50;;;;;;;20.58;13.73;;;14.40;99.90;;;;;;5016794;28;20393;-77
2022/06/08 03:02:28;;;;;;;20.50;13.35;;;14.50;99.90;;;;;;5061881;28;20389;-76
2022/06/08 03:05:04;;;;;;;25.02;12.70;;;14.50;99.90;;;;;;5050964;28;20910;-77
2022/06/08 03:07:35;;;;;;;20.63;12.63;;;14.50;99.90;;;;;;5040715;28;20393;-77
2022/06/08 03:10:07;;;;;;;22.70;12.70;;;14.50;99.90;;;;;;5044838;28;20485;-76
2022/06/08 03:12:36;;;;;;;27.33;13.00;;;14.40;99.90;;;;;;5054643;28;20401;-78
2022/06/08 03:15:07;;;;;;;19.48;12.65;;;14.40;99.90;;;;;;5054992;28;20415;-79
2022/06/08 03:17:35;;;;;;;20.63;13.40;;;14.40;99.90;;;;;;5046722;28;20382;-78
2022/06/08 03:20:04;;;;;;;21.90;12.80;;;14.40;99.90;;;;;;5043118;28;20481;-76
2022/06/08 03:22:30;;;;;;;20.98;12.50;;;14.40;99.90;;;;;;5040622;28;20379;-76
2022/06/08 03:24:56;;;;;;;19.35;12.75;;;14.50;99.90;;;;;;5029625;28;20675;-75
2022/06/08 03:27:22;;;;;;;17.23;11.30;;;14.50;99.90;;;;;;5051411;28;20436;-77
2022/06/08 03:29:47;;;;;;;15.85;12.00;;;14.50;99.90;;;;;;5052936;28;20836;-77
2022/06/08 03:32:13;;;;;;;18.05;11.35;;;14.60;99.90;;;;;;5052141;28;20412;-77
2022/06/08 03:34:40;;;;;;;13.97;10.77;;;14.60;99.90;;;;;;5051276;28;20408;-78
2022/06/08 03:37:06;;;;;;;15.55;10.90;;;14.70;99.90;;;;;;5044369;28;20395;-79
2022/06/08 03:39:32;;;;;;;15.80;10.23;;;14.70;99.90;;;;;;5042589;28;20405;-80
2022/06/08 03:41:58;;;;;;;15.60;10.50;;;14.70;99.90;;;;;;5027560;28;20392;-82
2022/06/08 03:44:23;;;;;;;14.43;10.27;;;14.70;99.90;;;;;;5042210;28;20415;-81
2022/06/08 03:46:58;;;;;;;13.10;10.00;;;14.70;99.90;;;;;;5055157;28;20389;-81
2022/06/08 03:49:24;;;;;;;15.40;10.07;;;14.70;99.90;;;;;;5039353;28;20411;-81
2022/06/08 03:51:54;;;;;;;14.23;9.20;;;14.80;99.90;;;;;;5039777;28;20375;-83
2022/06/08 03:54:23;;;;;;;43.22;18.75;;;14.80;99.90;;;;;;5055074;28;20423;-78
2022/06/08 03:56:52;;;;;;;13.13;9.13;;;14.80;99.90;;;;;;5059476;28;20449;-79
2022/06/08 03:59:17;;;;;;;14.15;8.20;;;14.80;99.90;;;;;;5059799;28;20389;-82
2022/06/08 04:01:44;;;;;;;13.30;8.43;;;14.80;99.90;;;;;;5055299;28;20412;-80
2022/06/08 04:04:11;;;;;;;13.55;8.27;;;14.90;99.90;;;;;;5051890;28;20416;-81
2022/06/08 04:06:37;;;;;;;10.43;7.50;;;14.90;99.90;;;;;;5052163;28;20398;-77
2022/06/08 04:09:03;;;;;;;15.25;8.40;;;14.90;99.90;;;;;;5038214;28;20463;-78
2022/06/08 04:11:29;;;;;;;14.88;8.07;;;15.00;99.90;;;;;;5050071;28;20423;-80
2022/06/08 04:13:55;;;;;;;15.93;7.93;;;15.00;99.90;;;;;;5051285;28;20410;-82
2022/06/08 04:16:21;;;;;;;9.88;7.20;;;15.00;99.90;;;;;;5041969;28;20868;-81
2022/06/08 04:18:47;;;;;;;9.75;7.20;;;15.10;99.90;;;;;;5040287;28;20401;-81
2022/06/08 04:21:14;;;;;;;11.75;7.50;;;15.00;99.90;;;;;;5040150;28;20399;-81
2022/06/08 04:23:41;;;;;;;11.23;6.60;;;15.10;99.90;;;;;;5050687;28;20429;-80
2022/06/08 04:26:07;;;;;;;12.73;6.90;;;15.20;99.90;;;;;;5056237;28;20406;-81
2022/06/08 04:28:33;;;;;;;12.65;6.50;;;15.30;99.90;;;;;;5039990;28;20406;-80
2022/06/08 04:30:59;;;;;;;11.13;6.53;;;15.40;99.90;;;;;;5040282;28;20433;-82
2022/06/08 04:33:25;;;;;;;11.70;6.22;;;15.50;99.90;;;;;;5032124;28;20403;-83
2022/06/08 04:35:51;;;;;;;9.45;6.00;;;15.60;99.90;;;;;;5052832;28;20419;-81
2022/06/08 04:38:17;;;;;;;11.47;6.00;;;15.70;99.90;;;;;;5059930;28;20882;-81
2022/06/08 04:40:44;;;;;;;9.80;5.53;;;15.70;99.90;;;;;;5041823;28;20397;-81
2022/06/08 04:43:09;;;;;;;10.02;5.70;;;15.70;99.90;;;;;;5051888;28;20403;-81
2022/06/08 04:45:36;;;;;;;8.17;5.53;;;15.80;99.90;;;;;;5032349;28;20399;-82
2022/06/08 04:48:03;;;;;;;8.55;5.40;;;15.80;99.90;;;;;;5043771;28;20399;-83
2022/06/08 04:50:30;;;;;;;11.20;5.57;;;15.80;99.90;;;;;;5037419;28;20390;-82
2022/06/08 04:52:55;;;;;;;9.73;5.65;;;15.80;99.90;;;;;;5047687;28;20412;-81
2022/06/08 04:55:22;;;;;;;6.90;5.53;;;15.80;99.90;;;;;;5056996;28;20383;-83
2022/06/08 04:57:48;;;;;;;7.28;5.40;;;15.90;99.90;;;;;;5044095;28;20419;-82
2022/06/08 05:00:18;;;;;;;9.75;5.13;;;16.00;98.10;;;;;;5043220;28;20395;-82
2022/06/08 05:02:47;;;;;;;10.80;5.00;;;16.00;96.40;;;;;;5041740;28;20759;-82
2022/06/08 05:05:33;;;;;;;6.40;4.68;;;16.00;94.70;;;;;;5053601;28;20411;-81
2022/06/08 05:15:00;;;;;;;6.55;4.22;;;16.30;91.10;;;;;;4999003;28;20799;-82
2022/06/08 05:18:22;;;;;;;;;;;;;;;;;;;;;
2022/06/08 05:20:57;;;;;;;6.70;4.03;;;16.80;85.90;;;;;;5003988;28;20475;-79
2022/06/08 05:23:39;;;;;;;7.43;4.23;;;17.10;84.40;;;;;;5045476;28;20896;-79
2022/06/08 05:26:14;;;;;;;7.20;4.10;;;17.30;79.60;;;;;;5049072;28;20379;-85
2022/06/08 05:28:43;;;;;;;9.57;3.90;;;17.60;75.00;;;;;;5041149;28;20511;-83
2022/06/08 05:31:17;;;;;;;8.45;3.20;;;17.80;69.80;;;;;;5041546;28;20394;-81
2022/06/08 05:33:46;;;;;;;6.82;3.72;;;18.10;64.90;;;;;;5060645;28;20455;-80
2022/06/08 05:36:53;;;;;;;;;;;;;;;;;;;;;
2022/06/08 05:39:58;;;;;;;;;;;;;;;;;;;;;
2022/06/08 05:47:08;;;;;;;8.23;3.55;;;18.40;60.30;;;;;;4988772;28;20419;-81
2022/06/08 05:49:58;;;;;;;6.90;3.30;;;18.50;57.40;;;;;;4970944;28;20433;-83
2022/06/08 05:52:24;;;;;;;3.17;2.80;;;18.70;55.10;;;;;;5053623;28;20411;-77
2022/06/08 05:54:49;;;;;;;3.40;3.10;;;18.70;54.60;;;;;;5051580;28;20407;-79
2022/06/08 05:57:15;;;;;;;5.90;3.30;;;18.80;53.20;;;;;;5053108;28;20748;-79
2022/06/08 05:59:41;;;;;;;6.22;3.42;;;18.90;53.10;;;;;;5057072;28;20478;-77
2022/06/08 06:02:10;;;;;;;7.88;3.50;;;18.90;53.00;;;;;;5065392;28;20457;-77
2022/06/08 06:04:36;;;;;;;4.88;2.70;;;19.10;52.20;;;;;;5064692;28;20389;-85
2022/06/08 06:07:02;;;;;;;3.90;2.53;;;19.20;51.70;;;;;;5061612;28;20427;-77
2022/06/08 06:09:27;;;;;;;5.15;2.80;;;19.40;48.50;;;;;;5068407;28;20441;-79
2022/06/08 06:11:53;;;;;;;6.07;2.50;;;19.30;48.00;;;;;;5062182;28;20929;-77
2022/06/08 06:14:19;;;;;;;4.13;2.58;;;19.30;47.80;;;;;;5057637;28;20397;-77
2022/06/08 06:16:45;;;;;;;4.35;3.00;;;19.30;47.70;;;;;;5060298;28;20408;-78
2022/06/08 06:19:10;;;;;;;4.32;2.45;;;19.30;48.10;;;;;;5054253;28;20729;-77
2022/06/08 06:21:36;;;;;;;5.20;2.50;;;19.50;47.20;;;;;;5054470;28;20412;-80
2022/06/08 06:24:04;;;;;;;5.50;2.70;;;19.60;46.80;;;;;;5057031;28;20433;-77
2022/06/08 06:26:30;;;;;;;6.50;3.00;;;19.50;46.00;;;;;;5061558;28;20409;-78
2022/06/08 06:28:57;;;;;;;3.83;2.20;;;19.60;45.90;;;;;;5041316;28;20439;-78
2022/06/08 06:31:43;;;;;;;3.10;2.10;;;19.70;44.70;;;;;;5054786;28;20480;-77
2022/06/08 06:34:13;;;;;;;4.20;2.30;;;19.60;44.70;;;;;;5057108;28;20399;-77
2022/06/08 06:36:39;;;;;;;4.90;2.60;;;19.70;44.70;;;;;;5062007;28;20402;-76
2022/06/08 06:39:05;;;;;;;6.25;2.53;;;19.90;42.40;;;;;;5065423;28;20440;-77
2022/06/08 06:41:31;;;;;;;4.28;2.40;;;19.90;42.70;;;;;;5057850;28;20421;-79
2022/06/08 06:43:59;;;;;;;8.60;2.70;;;20.10;41.40;;;;;;5025086;28;20411;-77
2022/06/08 06:46:25;;;;;;;6.07;2.22;;;20.30;40.60;;;;;;5057509;28;20412;-77
2022/06/08 06:48:50;;;;;;;4.78;1.95;;;20.40;39.30;;;;;;5066553;28;20420;-76
2022/06/08 06:51:16;;;;;;;7.70;2.20;;;20.40;38.60;;;;;;5057978;28;20405;-76
2022/06/08 06:53:42;;;;;;;3.40;2.20;;;20.40;38.50;;;;;;5060950;28;20411;-80
2022/06/08 06:56:08;;;;;;;4.60;2.00;;;20.50;38.70;;;;;;5057430;28;20401;-78
2022/06/08 06:58:35;;;;;;;5.20;2.20;;;20.50;38.20;;;;;;5055355;28;20433;-80
2022/06/08 07:01:01;;;;;;;4.10;2.00;;;20.60;37.60;;;;;;5053995;28;20405;-81
2022/06/08 07:03:27;;;;;;;5.90;2.00;;;20.50;37.90;;;;;;5039725;28;20405;-77
2022/06/08 07:05:53;;;;;;;3.55;2.15;;;20.40;37.40;;;;;;5068213;28;20932;-79
2022/06/08 07:08:18;;;;;;;3.67;2.10;;;20.50;37.40;;;;;;5063711;28;20417;-80
2022/06/08 07:11:32;;;;;;;3.43;1.73;;;20.50;38.00;;;;;;5063128;28;20405;-79
2022/06/08 07:13:29;;;;;;;3.35;1.98;;;20.70;37.30;;;;;;5059790;28;20417;-81
2022/06/08 07:15:55;;;;;;;4.93;2.20;;;20.80;36.70;;;;;;5065096;28;20414;-80
2022/06/08 07:18:21;;;;;;;2.85;1.95;;;20.90;36.90;;;;;;5062014;28;20409;-79
2022/06/08 07:20:46;;;;;;;3.43;1.90;;;21.10;36.70;;;;;;5055844;28;20416;-78
2022/06/08 07:23:12;;;;;;;2.95;2.42;;;21.10;35.30;;;;;;5063113;28;20437;-78
2022/06/08 07:25:37;;;;;;;6.93;1.90;;;21.00;35.20;;;;;;5066552;28;20418;-79
2022/06/08 07:28:03;;;;;;;2.30;1.83;;;21.10;34.90;;;;;;5065873;28;20543;-78
2022/06/08 07:30:29;;;;;;;3.45;2.00;;;21.10;35.30;;;;;;5052141;28;20413;-79
2022/06/08 07:32:54;;;;;;;6.30;1.90;;;21.00;35.20;;;;;;5065165;28;20459;-78
2022/06/08 07:35:20;;;;;;;2.20;2.00;;;21.10;35.20;;;;;;5069303;28;20479;-78
2022/06/08 07:37:45;;;;;;;9.90;4.57;;;21.00;35.70;;;;;;5067806;28;20469;-78
2022/06/08 07:40:12;;;;;;;2.10;1.90;;;21.00;36.20;;;;;;5008058;22;1777644;-75
2022/06/08 07:42:37;;;;;;;3.22;2.30;;;21.00;36.30;;;;;;5061655;28;20410;-77
2022/06/08 07:45:06;;;;;;;3.38;2.20;;;21.20;35.90;;;;;;5055891;28;20405;-76
2022/06/08 07:47:32;;;;;;;4.88;2.05;;;21.10;35.60;;;;;;5047881;28;20397;-76
2022/06/08 07:49:57;;;;;;;4.27;2.30;;;21.10;36.20;;;;;;5053132;28;20427;-76
2022/06/08 07:52:23;;;;;;;3.60;2.40;;;21.30;35.40;;;;;;5062104;28;20462;-77
2022/06/08 07:54:50;;;;;;;5.50;2.30;;;21.30;35.10;;;;;;5058382;28;20401;-77
2022/06/08 07:57:23;;;;;;;5.22;2.13;;;21.30;34.50;;;;;;5039231;28;20401;-77
2022/06/08 07:59:49;;;;;;;3.90;2.40;;;21.30;34.70;;;;;;5054032;28;20409;-77
2022/06/08 08:02:15;;;;;;;4.78;2.05;;;21.40;33.90;;;;;;5058233;28;20901;-76
2022/06/08 08:04:41;;;;;;;6.30;2.58;;;21.50;34.00;;;;;;5043383;28;20838;-77
2022/06/08 08:07:07;;;;;;;2.70;2.30;;;21.50;34.20;;;;;;5058020;28;20531;-77
2022/06/08 08:09:34;;;;;;;4.50;2.50;;;21.50;34.60;;;;;;5060801;28;20413;-75
2022/06/08 08:12:01;;;;;;;4.72;2.30;;;21.50;34.70;;;;;;5041468;28;20829;-77
2022/06/08 08:14:27;;;;;;;3.40;2.70;;;21.40;35.00;;;;;;5055616;28;20728;-76
2022/06/08 08:16:53;;;;;;;8.37;3.07;;;21.40;35.10;;;;;;5054021;28;20566;-78
2022/06/08 08:19:21;;;;;;;5.80;2.33;;;21.50;35.30;;;;;;5052607;28;20419;-74
2022/06/08 08:21:47;;;;;;;5.35;2.97;;;21.60;35.10;;;;;;5052739;28;20655;-75
2022/06/08 08:24:13;;;;;;;3.28;2.60;;;21.80;34.20;;;;;;5043519;28;20416;-75
2022/06/08 08:26:39;;;;;;;4.55;2.65;;;21.90;33.50;;;;;;5061600;28;20398;-76
2022/06/08 08:29:05;;;;;;;5.00;2.90;;;22.10;32.40;;;;;;5044929;28;20478;-76
2022/06/08 08:31:32;;;;;;;5.25;3.13;;;22.30;32.40;;;;;;5046341;28;20416;-76
2022/06/08 08:33:58;;;;;;;7.95;2.83;;;22.30;31.80;;;;;;5051911;28;20409;-76
2022/06/08 08:36:24;;;;;;;6.90;3.60;;;22.30;31.20;;;;;;5051947;28;21582;-77
2022/06/08 08:38:49;;;;;;;5.07;3.30;;;22.30;31.40;;;;;;5052422;28;20428;-77
2022/06/08 08:44:12;;;;;;;9.20;2.60;;;22.10;31.40;;;;;;5050300;28;20425;-76
2022/06/08 08:46:49;;;;;;;5.20;2.75;;;22.00;32.10;;;;;;5049628;28;20402;-78
2022/06/08 08:49:20;;;;;;;5.75;3.00;;;22.10;31.40;;;;;;5045669;28;20775;-77
2022/06/08 08:51:55;;;;;;;5.47;2.70;;;22.30;31.60;;;;;;5047507;28;20406;-75
2022/06/08 08:54:28;;;;;;;5.15;2.70;;;22.40;31.30;;;;;;5034902;28;20405;-77
2022/06/08 08:57:16;;;;;;;7.72;2.78;;;22.60;30.50;;;;;;5052848;28;20405;-77
2022/06/08 08:59:45;;;;;;;4.95;2.90;;;22.70;29.40;;;;;;5046475;28;20412;-76
2022/06/08 09:03:14;;;;;;;6.53;2.95;;;22.80;29.70;;;;;;5044566;28;20445;-78
2022/06/08 09:05:20;;;;;;;4.57;2.45;;;23.00;29.20;;;;;;5050373;28;20773;-77
2022/06/08 09:07:47;;;;;;;6.32;2.28;;;23.10;28.50;;;;;;5052932;28;20405;-75
2022/06/08 09:10:23;;;;;;;3.13;2.35;;;23.20;28.80;;;;;;5048924;28;20415;-75
2022/06/08 09:12:49;;;;;;;4.90;2.22;;;23.40;28.30;;;;;;5038772;28;20413;-74
2022/06/08 09:15:37;;;;;;;5.45;2.28;;;23.30;27.40;;;;;;5048765;28;20448;-75
2022/06/08 09:18:04;;;;;;;5.88;2.08;;;23.30;26.20;;;;;;5042641;28;20405;-77
2022/06/08 09:20:33;;;;;;;4.90;2.00;;;23.50;26.10;;;;;;5043860;28;20383;-77
2022/06/08 09:23:23;;;;;;;5.45;2.53;;;23.90;25.00;;;;;;5046388;28;20405;-77
2022/06/08 09:26:16;;;;;;;5.43;2.40;;;24.20;24.50;;;;;;5028740;28;20507;-75
2022/06/08 09:28:42;;;;;;;7.72;2.47;;;24.40;21.50;;;;;;5035281;28;20770;-77
2022/06/08 09:31:33;;;;;;;4.72;2.20;;;24.50;22.50;;;;;;5051860;28;20566;-77
2022/06/08 09:34:05;;;;;;;3.90;2.70;;;24.90;21.60;;;;;;5039058;28;20492;-78
2022/06/08 09:36:31;;;;;;;4.40;2.60;;;25.00;21.40;;;;;;5052510;28;20420;-78
2022/06/08 09:38:57;;;;;;;5.77;2.20;;;24.90;19.90;;;;;;5050771;28;20409;-79
2022/06/08 09:41:36;;;;;;;6.22;2.50;;;24.70;20.60;;;;;;5040394;28;20506;-77
2022/06/08 09:44:35;;;;;;;13.32;3.00;;;24.90;20.00;;;;;;5034471;28;20409;-78
2022/06/08 09:54:12;;;;;;;6.38;2.90;;;24.80;19.60;;;;;;5051689;28;20447;-77
2022/06/08 09:57:16;;;;;;;9.75;3.28;;;24.90;19.10;;;;;;5019085;28;20402;-76
2022/06/08 09:59:59;;;;;;;8.13;2.70;;;25.10;18.70;;;;;;5005505;28;20500;-76
2022/06/08 10:02:46;;;;;;;5.53;2.50;;;25.30;18.00;;;;;;5032351;28;20446;-78
2022/06/08 10:05:29;;;;;;;10.27;2.70;;;25.40;17.70;;;;;;5051033;28;20401;-77
2022/06/08 10:08:25;;;;;;;8.03;2.67;;;25.60;17.40;;;;;;5049906;28;20782;-77
2022/06/08 10:11:03;;;;;;;10.07;2.75;;;25.70;17.10;;;;;;5050316;28;20409;-76
2022/06/08 10:13:41;;;;;;;6.03;3.15;;;25.90;16.40;;;;;;5049308;28;20497;-76
2022/06/08 10:16:33;;;;;;;6.37;2.57;;;26.10;15.50;;;;;;5062254;28;20421;-77
2022/06/08 10:19:05;;;;;;;6.47;2.60;;;26.40;14.40;;;;;;5044222;28;20403;-78
2022/06/08 10:21:41;;;;;;;6.55;2.22;;;26.70;14.90;;;;;;5048409;28;20493;-77
2022/06/08 10:24:15;;;;;;;8.88;2.90;;;26.80;14.00;;;;;;5036032;28;20500;-78
2022/06/08 10:26:43;;;;;;;8.13;2.60;;;26.60;14.20;;;;;;5054999;28;20408;-78
2022/06/08 10:29:33;;;;;;;8.23;2.70;;;26.20;15.40;;;;;;5043629;28;20425;-77
2022/06/08 10:32:20;;;;;;;4.88;2.42;;;25.60;16.10;;;;;;5063263;28;20403;-77
2022/06/08 10:34:53;;;;;;;4.03;2.10;;;25.30;17.10;;;;;;5053254;28;20408;-78
2022/06/08 10:37:24;;;;;;;3.90;2.40;;;25.20;17.50;;;;;;5036151;28;20421;-78
2022/06/08 10:39:50;;;;;;;11.20;2.70;;;24.50;18.60;;;;;;5037618;28;20459;-78
2022/06/08 10:42:42;;;;;;;9.05;2.50;;;23.80;20.00;;;;;;5058489;28;20409;-74
2022/06/08 10:45:23;;;;;;;9.85;3.45;;;22.50;33.50;;;;;;5058082;28;20801;-77
2022/06/08 10:48:01;;;;;;;13.55;3.60;;;20.90;41.70;;;;;;5052135;28;20402;-78
2022/06/08 10:51:00;;;;;;;12.23;3.58;;;19.70;56.80;;;;;;5042416;28;20416;-76
2022/06/08 10:56:35;;;;;;;10.13;3.65;;;17.80;73.50;;;;;;5050332;28;20483;-76
2022/06/08 10:59:04;;;;;;;11.48;4.30;;;17.50;83.70;;;;;;5045728;28;20415;-77
2022/06/08 11:01:35;;;;;;;9.48;3.95;;;17.40;89.40;;;;;;5049616;28;20487;-76
2022/06/08 11:04:05;;;;;;;10.90;3.95;;;17.50;90.80;;;;;;5041827;28;20413;-74
2022/06/08 11:06:46;;;;;;;14.30;4.95;;;17.80;91.00;;;;;;5042326;28;20862;-75
2022/06/08 11:09:34;;;;;;;10.53;5.17;;;18.00;94.80;;;;;;5041562;28;20540;-74
2022/06/08 11:12:11;;;;;;;12.63;5.50;;;18.30;96.10;;;;;;5045330;28;20459;-74
2022/06/08 11:14:43;;;;;;;12.98;5.05;;;18.30;96.80;;;;;;5035540;28;20393;-73
2022/06/08 11:17:36;;;;;;;12.77;4.40;;;18.50;84.60;;;;;;5051410;28;20473;-75
2022/06/08 11:20:25;;;;;;;12.57;4.82;;;18.60;84.30;;;;;;5043945;28;20409;-74
2022/06/08 11:22:57;;;;;;;10.85;5.05;;;18.40;80.60;;;;;;5051621;28;20421;-75
2022/06/08 11:25:30;;;;;;;11.07;4.50;;;18.50;80.20;;;;;;5052036;28;20410;-75
2022/06/08 11:28:29;;;;;;;12.77;5.47;;;18.50;82.60;;;;;;5047668;28;20407;-75
2022/06/08 11:31:02;;;;;;;14.77;5.63;;;18.40;87.50;;;;;;5041968;28;20954;-74
2022/06/08 11:33:50;;;;;;;15.43;6.20;;;18.30;90.90;;;;;;5050985;28;20868;-74
2022/06/08 11:36:52;;;;;;;13.80;5.85;;;18.20;93.50;;;;;;5047845;28;20908;-75
2022/06/08 11:39:32;;;;;;;11.05;4.93;;;18.10;93.80;;;;;;5052394;28;20403;-74
2022/06/08 11:42:27;;;;;;;7.85;4.53;;;18.10;91.60;;;;;;5057225;28;20402;-75
2022/06/08 11:44:55;;;;;;;13.17;4.10;;;18.20;90.80;;;;;;5066180;28;20606;-76
2022/06/08 11:47:40;;;;;;;8.75;3.83;;;18.40;83.30;;;;;;5039680;28;20402;-73
2022/06/08 11:50:20;;;;;;;9.45;4.35;;;18.50;75.30;;;;;;5047403;28;20418;-76
2022/06/08 11:52:55;;;;;;;12.73;4.30;;;18.70;75.60;;;;;;5027441;28;20821;-74
2022/06/08 11:55:23;;;;;;;9.40;4.18;;;18.90;73.70;;;;;;5034257;28;20397;-75
2022/06/08 11:58:23;;;;;;;11.25;4.50;;;19.00;73.30;;;;;;5045086;28;20387;-75
2022/06/08 12:00:53;;;;;;;10.35;4.20;;;19.10;71.00;;;;;;4995146;28;20433;-75
2022/06/08 12:03:41;;;;;;;14.45;5.00;;;19.30;70.70;;;;;;5051079;28;20389;-76
2022/06/08 12:06:14;;;;;;;11.00;4.80;;;19.30;74.50;;;;;;5051136;28;20385;-75
2022/06/08 12:08:58;;;;;;;8.65;4.80;;;19.10;71.10;;;;;;5047406;28;20498;-73
2022/06/08 12:11:28;;;;;;;11.73;5.25;;;19.20;68.10;;;;;;5042347;28;20417;-75
2022/06/08 12:14:24;;;;;;;15.50;5.00;;;19.10;76.70;;;;;;5052093;28;20854;-76
2022/06/08 12:16:59;;;;;;;9.18;4.40;;;19.10;77.80;;;;;;5046426;28;20374;-76
2022/06/08 12:19:44;;;;;;;12.52;5.30;;;19.10;74.90;;;;;;5055728;28;20373;-76
2022/06/08 12:22:30;;;;;;;12.40;4.70;;;19.10;71.60;;;;;;5054138;28;20490;-77
2022/06/08 12:25:15;;;;;;;15.00;5.38;;;19.20;67.00;;;;;;5046372;28;20433;-76
2022/06/08 12:27:46;;;;;;;13.50;4.63;;;19.30;71.00;;;;;;5057293;28;20392;-75
2022/06/08 12:30:23;;;;;;;15.20;5.10;;;19.20;67.40;;;;;;5062108;28;20476;-75
2022/06/08 12:32:53;;;;;;;9.55;4.50;;;19.20;71.60;;;;;;5061449;28;20435;-77
2022/06/08 12:35:23;;;;;;;11.35;4.63;;;19.30;70.10;;;;;;5050504;28;20445;-74
2022/06/08 12:38:00;;;;;;;14.93;4.47;;;19.30;67.10;;;;;;5033859;28;20409;-75
2022/06/08 12:40:29;;;;;;;11.85;4.50;;;19.30;63.50;;;;;;5058346;28;20477;-74
2022/06/08 12:43:09;;;;;;;12.82;4.28;;;19.30;65.80;;;;;;5036748;28;20925;-75
2022/06/08 12:46:02;;;;;;;12.30;4.95;;;19.50;61.80;;;;;;5048607;28;20412;-77
2022/06/08 12:48:37;;;;;;;14.50;5.53;;;19.40;69.00;;;;;;5042427;28;20911;-76
2022/06/08 12:51:29;;;;;;;14.50;5.00;;;19.50;72.60;;;;;;5036567;28;20412;-74
2022/06/08 12:53:56;;;;;;;11.82;4.57;;;19.50;70.00;;;;;;5058320;28;20393;-73
2022/06/08 12:56:23;;;;;;;10.98;3.72;;;19.70;70.20;;;;;;5053519;28;20464;-77
2022/06/08 12:58:50;;;;;;;11.65;3.85;;;19.90;57.40;;;;;;5055649;28;20476;-73
2022/06/08 13:01:18;;;;;;;8.88;3.40;;;20.20;56.60;;;;;;5053344;28;20439;-72
2022/06/08 13:03:44;;;;;;;11.20;4.00;;;20.40;54.70;;;;;;5053439;28;20394;-73
2022/06/08 13:06:10;;;;;;;7.63;3.80;;;20.50;58.00;;;;;;5037947;28;20389;-74
2022/06/08 13:08:36;;;;;;;10.63;3.85;;;20.60;57.50;;;;;;5042113;28;20417;-75
2022/06/08 13:11:06;;;;;;;9.00;3.50;;;20.80;57.20;;;;;;5043495;28;20409;-74
2022/06/08 13:13:36;;;;;;;8.95;3.42;;;21.00;51.30;;;;;;5030140;28;20757;-78
2022/06/08 13:16:13;;;;;;;9.77;3.55;;;20.90;51.10;;;;;;5050442;28;20403;-73
2022/06/08 13:18:39;;;;;;;9.40;3.13;;;20.80;50.60;;;;;;5049055;28;20413;-75
2022/06/08 13:21:07;;;;;;;7.88;3.25;;;20.60;51.90;;;;;;5047953;28;20512;-76
2022/06/08 13:23:34;;;;;;;12.73;4.40;;;20.40;54.60;;;;;;5033042;28;20424;-71
2022/06/08 13:26:00;;;;;;;9.93;3.95;;;20.30;57.00;;;;;;5041549;28;20480;-72
2022/06/08 13:28:32;;;;;;;15.43;4.07;;;20.50;56.90;;;;;;5038766;28;20409;-71
2022/06/08 13:31:04;;;;;;;12.93;3.90;;;20.60;55.80;;;;;;5040713;28;20401;-71
2022/06/08 13:36:51;;;;;;;10.63;4.13;;;20.40;57.20;;;;;;5045186;28;20427;-73
2022/06/08 13:39:28;;;;;;;6.82;3.20;;;20.40;54.60;;;;;;5041904;28;20469;-73
2022/06/08 13:41:58;;;;;;;7.40;3.25;;;20.40;53.40;;;;;;5047851;28;20488;-73
2022/06/08 13:44:32;;;;;;;6.03;3.28;;;20.40;56.60;;;;;;5041955;28;20416;-71